• Join FlightAware (Why Join?)
  • Login
  • US Flag 
01:52AM EDT


 

Airport Tracker/Info


-or-


 

Live Flight TrackerFlight Track Log ✈ N52522 ✈ 02-May-2013 ✈ KPTK - KLEX

Flight Track Log - Related Links

Times and Time Zones

All times are in EDT time to prevent confusion due to time zone crossing. See the N52522 flight status page for this flight to view local times or setup timezone preferences in your user account.

Time Position Orientation Groundspeed Altitude Reporting Facility
EDT Latitude Longitude Course Direction KTS MPH feet Rate Location/Type
01:00PM 41.7989 -83.8422 182° South 91 105 4,400  Level Cleveland Center
01:01PM 41.7717 -83.8436 182° South 97 112 4,500  Climbing Cleveland Center
01:02PM 41.7508 -83.8508 195° South 94 108 4,500 -60 Level Cleveland Center
01:03PM 41.7214 -83.8578 190° South 97 112 4,400 -60 Descending Cleveland Center
01:04PM 41.6983 -83.8650 193° South 92 106 4,400  Level Cleveland Center
01:05PM 41.6731 -83.8664 182° South 92 106 4,400  Level Cleveland Center
01:06PM 41.6439 -83.8733 190° South 88 101 4,400  Level Cleveland Center
01:07PM 41.6206 -83.8803 193° South 91 105 4,400  Level Cleveland Center
01:08PM 41.5914 -83.8844 186° South 98 113 4,500  Climbing Cleveland Center
01:09PM 41.5661 -83.8914 192° South 99 114 4,500 -60 Level Cleveland Center
01:10PM 41.5408 -83.8958 187° South 98 113 4,400 -60 Descending Cleveland Center
01:11PM 41.5200 -83.9003 189° South 96 110 4,400  Level Cleveland Center
01:12PM 41.4844 -83.9067 188° South 93 107 4,400  Level Cleveland Center
01:13PM 41.4633 -83.9111 189° South 91 105 4,400  Level Cleveland Center
01:14PM 41.4381 -83.9183 192° South 93 107 4,400  Level Cleveland Center
01:15PM 41.4044 -83.9247 188° South 96 110 4,400  Level Cleveland Center
01:16PM 41.3878 -83.9267 185° South 98 113 4,400  Level Cleveland Center
01:17PM 41.3564 -83.9361 193° South 95 109 4,400  Level Cleveland Center
01:18PM 41.3333 -83.9378 183° South 95 109 4,400  Level Cleveland Center
01:19PM 41.2997 -83.9469 192° South 97 112 4,400  Level Cleveland Center
01:20PM 41.2767 -83.9514 188° South 97 112 4,400  Level Cleveland Center
01:21PM 41.2514 -83.9583 192° South 95 109 4,400  Level Cleveland Center
01:22PM 41.2261 -83.9625 187° South 95 109 4,400  Level Cleveland Center
01:23PM 41.1969 -83.9694 190° South 95 109 4,400  Level Cleveland Center
01:24PM 41.1675 -83.9733 186° South 97 112 4,400  Level Cleveland Center
01:25PM 41.1422 -83.9803 192° South 99 114 4,400  Level Cleveland Center
01:26PM 41.1214 -83.9847 189° South 99 114 4,400  Level Cleveland Center
01:27PM 41.0942 -83.9861 182° South 100 115 4,400  Level Cleveland Center
01:28PM 41.0650 -84.0092 211° Southwest 106 122 4,500  Climbing Indianapolis Center
01:29PM 41.0336 -84.0144 187° South 105 121 4,500  Level Indianapolis Center
01:30PM 41.0044 -84.0169 184° South 103 119 4,500  Level Indianapolis Center
01:31PM 40.9794 -84.0278 198° South 102 117 4,500  Level Indianapolis Center
01:32PM 40.9503 -84.0358 192° South 106 122 4,500  Level Indianapolis Center
01:33PM 40.9211 -84.0467 196° South 104 120 4,500  Level Indianapolis Center
01:34PM 40.8958 -84.0683 213° Southwest 109 125 4,500  Level Indianapolis Center
01:35PM 40.8689 -84.0903 212° Southwest 106 122 4,500  Level Indianapolis Center
01:36PM 40.8478 -84.1256 232° Southwest 127 146 4,500  Level Indianapolis Center
01:37PM 40.8186 -84.1308 188° South 103 119 4,500  Level Indianapolis Center
01:38PM 40.7914 -84.1361 188° South 101 116 4,500 -60 Level Indianapolis Center
01:39PM 40.7642 -84.1236 161° South 109 125 4,400 -60 Descending Indianapolis Center
01:40PM 40.7350 -84.1294 189° South 107 123 4,400  Level Indianapolis Center
01:41PM 40.7075 -84.1347 188° South 103 119 4,400  Level Indianapolis Center
01:42PM 40.6758 -84.1372 183° South 97 112 4,500  Climbing Indianapolis Center
01:43PM 40.6481 -84.1456 193° South 98 113 4,500  Level Indianapolis Center
01:44PM 40.6183 -84.1514 188° South 102 117 4,500  Level Indianapolis Center
01:45PM 40.5881 -84.1561 187° South 106 122 4,500  Level Indianapolis Center
01:47PM 40.5586 -84.1628 190° South 107 123 4,500  Level Indianapolis Center
01:48PM 40.5306 -84.1681 188° South 105 121 4,500  Level Indianapolis Center
01:49PM 40.5031 -84.1719 186° South 101 116 4,500  Level Indianapolis Center
01:50PM 40.4739 -84.1775 188° South 103 119 4,500  Level Indianapolis Center
01:51PM 40.4422 -84.1836 188° South 101 116 4,500  Level Indianapolis Center
01:52PM 40.4133 -84.1886 188° South 101 116 4,600 300 Climbing Indianapolis Center
01:53PM 40.3872 -84.1944 190° South 99 114 5,200 600 Climbing Indianapolis Center
01:54PM 40.3633 -84.1972 185° South 78 90 5,900 540 Climbing Indianapolis Center
01:55PM 40.3450 -84.2014 190° South 81 93 6,400 240 Climbing Indianapolis Center
01:56PM 40.3186 -84.2050 186° South 83 96 6,500  Climbing Indianapolis Center
01:57PM 40.2922 -84.2111 190° South 86 99 6,500  Level Indianapolis Center
01:58PM 40.2661 -84.2189 193° South 92 106 6,500  Level Indianapolis Center
01:59PM 40.2394 -84.2314 200° South 95 109 6,600  Climbing Indianapolis Center
02:00PM 40.2025 -84.2414 192° South 104 120 6,600 -60 Level Indianapolis Center
02:01PM 40.1822 -84.2478 194° South 103 119 6,500 -60 Descending Indianapolis Center
02:02PM 40.1531 -84.2536 189° South 104 120 6,500  Level Indianapolis Center
02:03PM 40.1253 -84.2514 176° South 102 117 6,500  Level Indianapolis Center
02:04PM 40.0917 -84.2506 179° South 103 119 6,500  Level Indianapolis Center
02:05PM 40.0633 -84.2575 191° South 102 117 6,500  Level Indianapolis Center
02:06PM 40.0347 -84.2619 187° South 103 119 6,500  Level Indianapolis Center
02:07PM 40.0075 -84.2725 197° South 101 116 6,500  Level Indianapolis Center
02:08PM 39.9797 -84.2769 187° South 100 115 6,500  Level Indianapolis Center
02:09PM 39.9481 -84.2808 185° South 98 113 6,600  Climbing Indianapolis Center
02:10PM 39.9225 -84.2856 188° South 98 113 6,600  Level Indianapolis Center
02:11PM 39.8933 -84.2875 183° South 97 112 6,600  Level Indianapolis Center
02:12PM 39.8678 -84.2894 183° South 93 107 6,700  Climbing Indianapolis Center
02:13PM 39.8428 -84.2986 196° South 94 108 6,600 -60 Descending Indianapolis Center
02:14PM 39.8225 -84.3047 193° South 98 113 6,600  Level Indianapolis Center
02:14PM 39.8158 -84.3053 184° South 96 110 6,600 60 Level Indianapolis Center
02:15PM 39.7928 -84.3092 187° South 94 108 6,700  Climbing Indianapolis Center
02:16PM 39.7636 -84.3061 175° South 93 107 6,700  Level Indianapolis Center
02:18PM 39.7367 -84.3119 189° South 96 110 6,700  Level Indianapolis Center
02:18PM 39.7061 -84.3164 186° South 98 113 6,800  Climbing Indianapolis Center
02:20PM 39.6769 -84.3228 190° South 98 113 6,800  Level Indianapolis Center
02:21PM 39.6481 -84.3231 180° South 102 117 6,800 -60 Level Indianapolis Center
02:22PM 39.6183 -84.3292 189° South 105 121 6,700  Descending Indianapolis Center
02:23PM 39.5911 -84.3353 190° South 102 117 6,800 120 Climbing Indianapolis Center
02:24PM 39.5642 -84.3378 184° South 98 113 7,000 240 Climbing Indianapolis Center
02:25PM 39.5394 -84.3381 180° South 92 106 7,300 120 Climbing Indianapolis Center
02:26PM 39.5094 -84.3494 196° South 96 110 7,300  Level Indianapolis Center
02:27PM 39.4825 -84.3564 191° South 97 112 7,300  Level Indianapolis Center
02:28PM 39.4556 -84.3575 182° South 96 110 7,300 -60 Level Indianapolis Center
02:29PM 39.4303 -84.3639 191° South 94 108 7,200  Descending Indianapolis Center
02:30PM 39.4019 -84.3656 183° South 98 113 7,300  Climbing Indianapolis Center
02:31PM 39.3736 -84.3700 187° South 101 116 7,200 -60 Descending Indianapolis Center
02:32PM 39.3453 -84.3761 189° South 101 116 7,200  Level Indianapolis Center
02:33PM 39.3142 -84.3878 196° South 100 115 7,200  Level Indianapolis Center
02:34PM 39.2883 -84.3919 187° South 96 110 7,200  Level Indianapolis Center
02:35PM 39.2619 -84.3975 189° South 94 108 7,300  Climbing Indianapolis Center
02:36PM 39.2356 -84.4014 187° South 95 109 7,200 -60 Descending Indianapolis Center
02:37PM 39.2097 -84.4036 184° South 93 107 7,200  Level Indianapolis Center
02:38PM 39.1817 -84.4058 184° South 97 112 7,200  Level Indianapolis Center
02:39PM 39.1569 -84.4139 194° South 94 108 7,200  Level Indianapolis Center
02:40PM 39.1261 -84.4236 194° South 95 109 7,200  Level Indianapolis Center
02:41PM 39.0989 -84.4261 184° South 97 112 7,200  Level Indianapolis Center
02:42PM 39.0714 -84.4314 188° South 98 113 7,200  Level Indianapolis Center
02:43PM 39.0500 -84.4333 184° South 95 109 7,300  Climbing Cincinnati TRACON
02:44PM 39.0167 -84.4333 180° South 101 116 7,300  Level Cincinnati TRACON
02:45PM 38.9833 -84.4333 180° South 97 112 7,300  Level Cincinnati TRACON
02:46PM 38.9667 -84.4500 218° Southwest 95 109 7,300  Level Cincinnati TRACON
02:47PM 38.9333 -84.4500 180° South 98 113 7,300  Level Cincinnati TRACON
02:48PM 38.9000 -84.4500 180° South 99 114 7,300 -60 Level Cincinnati TRACON
02:49PM 38.8833 -84.4500 180° South 91 105 7,200  Descending Cincinnati TRACON
02:50PM 38.8500 -84.4667 201° Southwest 86 99 7,300  Climbing Cincinnati TRACON
02:52PM 38.8294 -84.4708 189° South 92 106 7,200 120 Descending Indianapolis Center
02:53PM 38.7833 -84.4667 176° South 81 93 7,800 240 Climbing Cincinnati TRACON
02:54PM 38.7828 -84.4778 266° West 84 97 7,700  Descending Indianapolis Center
02:55PM 38.7536 -84.4847 191° South 92 106 7,800  Climbing Indianapolis Center
02:56PM 38.7281 -84.4939 196° South 94 108 7,700  Descending Indianapolis Center
02:57PM 38.7042 -84.4936 179° South 87 100 7,800  Climbing Indianapolis Center
02:58PM 38.6781 -84.4947 182° South 92 106 7,700 -60 Descending Indianapolis Center
02:59PM 38.6511 -84.5014 191° South 97 112 7,700  Level Indianapolis Center
03:00PM 38.6233 -84.5064 188° South 90 104 7,700  Level Indianapolis Center
03:01PM 38.5992 -84.5114 189° South 88 101 7,700  Level Indianapolis Center
03:02PM 38.5736 -84.5136 184° South 90 104 7,800 -480 Climbing Indianapolis Center
03:03PM 38.5464 -84.5186 188° South 96 110 6,800 -1,020 Descending Indianapolis Center
03:04PM 38.5158 -84.5294 196° South 98 113 5,700 -1,020 Descending Indianapolis Center
03:05PM 38.4872 -84.5339 187° South 101 116 4,700 -780 Descending Indianapolis Center
03:06PM 38.4611 -84.5361 184° South 102 117 4,100 -600 Descending Indianapolis Center
03:08PM 38.4234 -84.5233 191° South  Level FlightAware Approximate
03:15PM 38.2427 -84.5592 186° South  Level FlightAware Approximate
03:16PM 38.2167 -84.5625 186° South  Level FlightAware Approximate
03:17PM 38.1906 -84.5658 186° South  Level FlightAware Approximate
03:18PM 38.1650 -84.5719 193° South  Level FlightAware Approximate
03:19PM 38.1395 -84.5792 193° South  Level FlightAware Approximate
03:20PM 38.1139 -84.5865 193° South  Level FlightAware Approximate
03:21PM 38.0884 -84.5938 193° South  Level FlightAware Approximate
03:22PM 38.0628 -84.6000 180° South  Level FlightAware Approximate
03:23PM 38.0367 -84.6000 180° South  Level FlightAware Approximate
03:24PM 38.0333 -84.6000 180° South  Level FlightAware Approximate
03:25PM 38.0368 -84.6086 180° South  Level Estimated
03:26PM 38.0368 -84.6086 180° South  Level Estimated
03:27PM 38.0368 -84.6086 180° South  Level Estimated
03:28PM 38.0368 -84.6086 180° South  Level Estimated
03:29PM 38.0368 -84.6086 180° South  Level Estimated
03:30PM 38.0368 -84.6086 180° South  Level Estimated